sensor_id;sensor_type;location;lat;lon;timestamp;P1;durP1;ratioP1;P2;durP2;ratioP2
83417;SDS011;74442;50.104;14.472;2023-12-20T00:00:10;3.90;;;2.80;;
83417;SDS011;74442;50.104;14.472;2023-12-20T00:02:41;5.40;;;3.60;;
83417;SDS011;74442;50.104;14.472;2023-12-20T00:05:14;5.10;;;3.30;;
83417;SDS011;74442;50.104;14.472;2023-12-20T00:07:48;4.90;;;3.30;;
83417;SDS011;74442;50.104;14.472;2023-12-20T00:10:19;5.10;;;3.50;;
83417;SDS011;74442;50.104;14.472;2023-12-20T00:12:50;5.90;;;3.60;;
83417;SDS011;74442;50.104;14.472;2023-12-20T00:15:23;5.60;;;3.80;;
83417;SDS011;74442;50.104;14.472;2023-12-20T00:17:55;4.20;;;3.20;;
83417;SDS011;74442;50.104;14.472;2023-12-20T00:20:28;3.90;;;2.80;;
83417;SDS011;74442;50.104;14.472;2023-12-20T00:22:59;3.10;;;2.60;;
83417;SDS011;74442;50.104;14.472;2023-12-20T00:25:30;5.00;;;3.30;;
83417;SDS011;74442;50.104;14.472;2023-12-20T00:28:02;6.30;;;3.90;;
83417;SDS011;74442;50.104;14.472;2023-12-20T00:30:33;4.50;;;3.30;;
83417;SDS011;74442;50.104;14.472;2023-12-20T00:33:06;4.10;;;2.70;;
83417;SDS011;74442;50.104;14.472;2023-12-20T00:35:45;4.20;;;3.30;;
83417;SDS011;74442;50.104;14.472;2023-12-20T00:38:24;6.00;;;3.60;;
83417;SDS011;74442;50.104;14.472;2023-12-20T00:40:57;4.20;;;3.20;;
83417;SDS011;74442;50.104;14.472;2023-12-20T00:43:29;9.90;;;3.60;;
83417;SDS011;74442;50.104;14.472;2023-12-20T00:45:59;6.10;;;3.80;;
83417;SDS011;74442;50.104;14.472;2023-12-20T00:48:31;4.50;;;3.50;;
83417;SDS011;74442;50.104;14.472;2023-12-20T00:51:03;5.00;;;3.30;;
83417;SDS011;74442;50.104;14.472;2023-12-20T00:53:35;5.30;;;3.50;;
83417;SDS011;74442;50.104;14.472;2023-12-20T00:56:07;6.40;;;3.70;;
83417;SDS011;74442;50.104;14.472;2023-12-20T00:58:41;4.60;;;2.90;;
83417;SDS011;74442;50.104;14.472;2023-12-20T01:03:43;4.20;;;2.80;;
83417;SDS011;74442;50.104;14.472;2023-12-20T01:06:16;5.40;;;3.30;;
83417;SDS011;74442;50.104;14.472;2023-12-20T01:08:47;5.70;;;4.00;;
83417;SDS011;74442;50.104;14.472;2023-12-20T01:11:23;6.10;;;3.90;;
83417;SDS011;74442;50.104;14.472;2023-12-20T01:13:54;5.60;;;4.40;;
83417;SDS011;74442;50.104;14.472;2023-12-20T01:16:24;5.70;;;4.30;;
83417;SDS011;74442;50.104;14.472;2023-12-20T01:18:57;6.50;;;3.30;;
83417;SDS011;74442;50.104;14.472;2023-12-20T01:21:27;5.00;;;3.40;;
83417;SDS011;74442;50.104;14.472;2023-12-20T01:24:04;6.60;;;3.70;;
83417;SDS011;74442;50.104;14.472;2023-12-20T01:26:37;5.50;;;4.30;;
83417;SDS011;74442;50.104;14.472;2023-12-20T01:29:10;5.50;;;3.80;;
83417;SDS011;74442;50.104;14.472;2023-12-20T01:31:43;5.00;;;3.90;;
83417;SDS011;74442;50.104;14.472;2023-12-20T01:34:15;5.10;;;3.90;;
83417;SDS011;74442;50.104;14.472;2023-12-20T01:36:46;6.10;;;3.70;;
83417;SDS011;74442;50.104;14.472;2023-12-20T01:39:20;5.90;;;3.70;;
83417;SDS011;74442;50.104;14.472;2023-12-20T01:41:54;5.80;;;4.00;;
83417;SDS011;74442;50.104;14.472;2023-12-20T01:44:26;5.50;;;3.80;;
83417;SDS011;74442;50.104;14.472;2023-12-20T01:46:56;4.60;;;3.30;;
83417;SDS011;74442;50.104;14.472;2023-12-20T01:49:27;5.40;;;3.30;;
83417;SDS011;74442;50.104;14.472;2023-12-20T01:52:00;5.00;;;3.70;;
83417;SDS011;74442;50.104;14.472;2023-12-20T01:54:31;4.20;;;2.80;;
83417;SDS011;74442;50.104;14.472;2023-12-20T01:57:05;4.50;;;3.30;;
83417;SDS011;74442;50.104;14.472;2023-12-20T01:59:37;6.40;;;3.90;;
83417;SDS011;74442;50.104;14.472;2023-12-20T02:02:10;5.60;;;4.40;;
83417;SDS011;74442;50.104;14.472;2023-12-20T02:04:43;5.80;;;3.80;;
83417;SDS011;74442;50.104;14.472;2023-12-20T02:07:15;6.40;;;4.00;;
83417;SDS011;74442;50.104;14.472;2023-12-20T02:09:47;5.60;;;3.80;;
83417;SDS011;74442;50.104;14.472;2023-12-20T02:12:19;5.40;;;4.00;;
83417;SDS011;74442;50.104;14.472;2023-12-20T02:14:53;4.70;;;3.50;;
83417;SDS011;74442;50.104;14.472;2023-12-20T02:17:24;4.60;;;3.60;;
83417;SDS011;74442;50.104;14.472;2023-12-20T02:19:56;5.40;;;3.90;;
83417;SDS011;74442;50.104;14.472;2023-12-20T02:22:26;6.30;;;4.30;;
83417;SDS011;74442;50.104;14.472;2023-12-20T02:25:05;4.10;;;2.80;;
83417;SDS011;74442;50.104;14.472;2023-12-20T02:27:34;5.80;;;3.20;;
83417;SDS011;74442;50.104;14.472;2023-12-20T02:30:04;6.40;;;4.00;;
83417;SDS011;74442;50.104;14.472;2023-12-20T02:32:35;4.50;;;3.50;;
83417;SDS011;74442;50.104;14.472;2023-12-20T02:35:05;4.40;;;3.20;;
83417;SDS011;74442;50.104;14.472;2023-12-20T02:37:34;7.10;;;3.70;;
83417;SDS011;74442;50.104;14.472;2023-12-20T02:40:04;6.10;;;3.60;;
83417;SDS011;74442;50.104;14.472;2023-12-20T02:42:34;4.40;;;3.50;;
83417;SDS011;74442;50.104;14.472;2023-12-20T02:45:04;5.60;;;3.60;;
83417;SDS011;74442;50.104;14.472;2023-12-20T02:47:35;5.30;;;3.80;;
83417;SDS011;74442;50.104;14.472;2023-12-20T02:50:04;5.80;;;4.10;;
83417;SDS011;74442;50.104;14.472;2023-12-20T02:52:35;5.00;;;3.60;;
83417;SDS011;74442;50.104;14.472;2023-12-20T02:55:05;4.60;;;3.60;;
83417;SDS011;74442;50.104;14.472;2023-12-20T02:57:34;4.70;;;3.50;;
83417;SDS011;74442;50.104;14.472;2023-12-20T03:00:04;5.30;;;4.00;;
83417;SDS011;74442;50.104;14.472;2023-12-20T03:02:36;6.80;;;4.00;;
83417;SDS011;74442;50.104;14.472;2023-12-20T03:05:06;5.60;;;3.70;;
83417;SDS011;74442;50.104;14.472;2023-12-20T03:07:37;4.30;;;3.20;;
83417;SDS011;74442;50.104;14.472;2023-12-20T03:10:07;6.20;;;4.10;;
83417;SDS011;74442;50.104;14.472;2023-12-20T03:12:37;6.20;;;3.90;;
83417;SDS011;74442;50.104;14.472;2023-12-20T03:15:06;6.30;;;3.90;;
83417;SDS011;74442;50.104;14.472;2023-12-20T03:23:10;5.70;;;3.70;;
83417;SDS011;74442;50.104;14.472;2023-12-20T03:25:39;4.50;;;3.40;;
83417;SDS011;74442;50.104;14.472;2023-12-20T03:28:09;5.10;;;3.90;;
83417;SDS011;74442;50.104;14.472;2023-12-20T03:30:37;4.40;;;3.00;;
83417;SDS011;74442;50.104;14.472;2023-12-20T03:33:07;5.00;;;3.20;;
83417;SDS011;74442;50.104;14.472;2023-12-20T03:35:36;4.70;;;3.00;;
83417;SDS011;74442;50.104;14.472;2023-12-20T03:38:06;4.20;;;3.30;;
83417;SDS011;74442;50.104;14.472;2023-12-20T03:40:36;5.00;;;3.30;;
83417;SDS011;74442;50.104;14.472;2023-12-20T03:43:06;2.90;;;2.50;;
83417;SDS011;74442;50.104;14.472;2023-12-20T03:45:35;4.50;;;3.50;;
83417;SDS011;74442;50.104;14.472;2023-12-20T03:48:05;3.70;;;3.00;;
83417;SDS011;74442;50.104;14.472;2023-12-20T03:50:34;4.40;;;3.20;;
83417;SDS011;74442;50.104;14.472;2023-12-20T03:53:06;3.90;;;3.10;;
83417;SDS011;74442;50.104;14.472;2023-12-20T03:55:35;3.10;;;2.60;;
83417;SDS011;74442;50.104;14.472;2023-12-20T03:58:04;3.90;;;2.80;;
83417;SDS011;74442;50.104;14.472;2023-12-20T04:00:34;4.70;;;2.60;;
83417;SDS011;74442;50.104;14.472;2023-12-20T04:03:03;3.80;;;2.90;;
83417;SDS011;74442;50.104;14.472;2023-12-20T04:05:32;3.40;;;2.80;;
83417;SDS011;74442;50.104;14.472;2023-12-20T04:08:02;4.30;;;3.10;;
83417;SDS011;74442;50.104;14.472;2023-12-20T04:10:32;4.40;;;3.00;;
83417;SDS011;74442;50.104;14.472;2023-12-20T04:13:01;4.90;;;2.70;;
83417;SDS011;74442;50.104;14.472;2023-12-20T04:15:29;3.50;;;2.60;;
83417;SDS011;74442;50.104;14.472;2023-12-20T04:18:00;3.50;;;2.20;;
83417;SDS011;74442;50.104;14.472;2023-12-20T04:20:30;4.90;;;3.00;;
83417;SDS011;74442;50.104;14.472;2023-12-20T04:22:59;4.00;;;2.90;;
83417;SDS011;74442;50.104;14.472;2023-12-20T04:25:28;3.50;;;2.50;;
83417;SDS011;74442;50.104;14.472;2023-12-20T04:27:59;3.20;;;2.10;;
83417;SDS011;74442;50.104;14.472;2023-12-20T04:30:27;3.80;;;2.60;;
83417;SDS011;74442;50.104;14.472;2023-12-20T04:32:56;3.10;;;2.60;;
83417;SDS011;74442;50.104;14.472;2023-12-20T04:35:24;2.50;;;1.80;;
83417;SDS011;74442;50.104;14.472;2023-12-20T04:37:54;2.40;;;1.80;;
83417;SDS011;74442;50.104;14.472;2023-12-20T04:40:24;3.80;;;2.50;;
83417;SDS011;74442;50.104;14.472;2023-12-20T04:42:55;2.60;;;2.10;;
83417;SDS011;74442;50.104;14.472;2023-12-20T04:45:24;4.60;;;3.60;;
83417;SDS011;74442;50.104;14.472;2023-12-20T04:47:54;3.60;;;2.70;;
83417;SDS011;74442;50.104;14.472;2023-12-20T04:50:23;4.00;;;2.50;;
83417;SDS011;74442;50.104;14.472;2023-12-20T04:52:53;3.90;;;2.70;;
83417;SDS011;74442;50.104;14.472;2023-12-20T04:55:22;3.00;;;2.60;;
83417;SDS011;74442;50.104;14.472;2023-12-20T04:57:51;3.00;;;2.40;;
83417;SDS011;74442;50.104;14.472;2023-12-20T05:06:17;3.10;;;2.60;;
83417;SDS011;74442;50.104;14.472;2023-12-20T05:08:55;3.00;;;2.30;;
83417;SDS011;74442;50.104;14.472;2023-12-20T05:11:38;3.20;;;2.30;;
83417;SDS011;74442;50.104;14.472;2023-12-20T05:14:43;3.10;;;2.40;;
83417;SDS011;74442;50.104;14.472;2023-12-20T05:17:40;3.10;;;2.30;;
83417;SDS011;74442;50.104;14.472;2023-12-20T05:20:10;3.70;;;2.50;;
83417;SDS011;74442;50.104;14.472;2023-12-20T05:22:39;4.00;;;2.50;;
83417;SDS011;74442;50.104;14.472;2023-12-20T05:25:08;2.70;;;2.30;;
83417;SDS011;74442;50.104;14.472;2023-12-20T05:27:38;3.50;;;2.50;;
83417;SDS011;74442;50.104;14.472;2023-12-20T05:30:12;3.20;;;2.40;;
83417;SDS011;74442;50.104;14.472;2023-12-20T05:32:43;3.00;;;2.40;;
83417;SDS011;74442;50.104;14.472;2023-12-20T05:35:13;3.60;;;2.80;;
83417;SDS011;74442;50.104;14.472;2023-12-20T05:37:42;3.90;;;2.90;;
83417;SDS011;74442;50.104;14.472;2023-12-20T05:40:11;4.70;;;2.50;;
83417;SDS011;74442;50.104;14.472;2023-12-20T05:42:40;4.80;;;2.70;;
83417;SDS011;74442;50.104;14.472;2023-12-20T05:45:09;2.90;;;2.10;;
83417;SDS011;74442;50.104;14.472;2023-12-20T05:47:38;2.90;;;2.20;;
83417;SDS011;74442;50.104;14.472;2023-12-20T05:50:07;3.70;;;2.70;;
83417;SDS011;74442;50.104;14.472;2023-12-20T05:52:37;3.70;;;2.50;;
83417;SDS011;74442;50.104;14.472;2023-12-20T05:55:06;4.50;;;2.80;;
83417;SDS011;74442;50.104;14.472;2023-12-20T05:57:35;3.10;;;2.20;;
83417;SDS011;74442;50.104;14.472;2023-12-20T06:00:05;3.60;;;2.90;;
83417;SDS011;74442;50.104;14.472;2023-12-20T06:02:36;3.10;;;2.00;;
83417;SDS011;74442;50.104;14.472;2023-12-20T06:05:05;2.40;;;1.80;;
83417;SDS011;74442;50.104;14.472;2023-12-20T06:07:35;4.50;;;3.10;;
83417;SDS011;74442;50.104;14.472;2023-12-20T06:10:04;3.20;;;2.30;;
83417;SDS011;74442;50.104;14.472;2023-12-20T06:12:34;3.70;;;2.30;;
83417;SDS011;74442;50.104;14.472;2023-12-20T06:15:03;3.40;;;2.50;;
83417;SDS011;74442;50.104;14.472;2023-12-20T06:17:33;3.40;;;2.30;;
83417;SDS011;74442;50.104;14.472;2023-12-20T06:20:03;3.80;;;2.70;;
83417;SDS011;74442;50.104;14.472;2023-12-20T06:22:35;3.60;;;2.50;;
83417;SDS011;74442;50.104;14.472;2023-12-20T06:25:04;4.00;;;3.40;;
83417;SDS011;74442;50.104;14.472;2023-12-20T06:27:34;3.70;;;2.70;;
83417;SDS011;74442;50.104;14.472;2023-12-20T06:30:04;3.60;;;2.70;;
83417;SDS011;74442;50.104;14.472;2023-12-20T06:32:36;2.90;;;2.30;;
83417;SDS011;74442;50.104;14.472;2023-12-20T06:35:07;5.00;;;2.30;;
83417;SDS011;74442;50.104;14.472;2023-12-20T06:37:36;3.60;;;2.40;;
83417;SDS011;74442;50.104;14.472;2023-12-20T06:40:09;2.80;;;2.10;;
83417;SDS011;74442;50.104;14.472;2023-12-20T06:42:39;3.00;;;1.90;;
83417;SDS011;74442;50.104;14.472;2023-12-20T06:45:10;2.90;;;2.40;;
83417;SDS011;74442;50.104;14.472;2023-12-20T06:47:40;3.80;;;2.60;;
83417;SDS011;74442;50.104;14.472;2023-12-20T06:50:10;2.30;;;1.90;;
83417;SDS011;74442;50.104;14.472;2023-12-20T06:52:41;2.90;;;2.20;;
83417;SDS011;74442;50.104;14.472;2023-12-20T06:55:11;3.10;;;2.20;;
83417;SDS011;74442;50.104;14.472;2023-12-20T06:57:41;3.40;;;2.40;;
83417;SDS011;74442;50.104;14.472;2023-12-20T07:00:12;2.70;;;1.90;;
83417;SDS011;74442;50.104;14.472;2023-12-20T07:02:43;2.20;;;1.70;;
83417;SDS011;74442;50.104;14.472;2023-12-20T07:05:16;2.90;;;1.90;;
83417;SDS011;74442;50.104;14.472;2023-12-20T07:07:47;4.90;;;2.10;;
83417;SDS011;74442;50.104;14.472;2023-12-20T07:10:17;2.80;;;2.30;;
83417;SDS011;74442;50.104;14.472;2023-12-20T07:12:48;3.10;;;2.30;;
83417;SDS011;74442;50.104;14.472;2023-12-20T07:15:19;3.60;;;2.40;;
83417;SDS011;74442;50.104;14.472;2023-12-20T07:17:50;2.30;;;1.70;;
83417;SDS011;74442;50.104;14.472;2023-12-20T07:20:21;4.00;;;2.10;;
83417;SDS011;74442;50.104;14.472;2023-12-20T07:22:52;2.40;;;2.00;;
83417;SDS011;74442;50.104;14.472;2023-12-20T07:25:22;3.20;;;2.20;;
83417;SDS011;74442;50.104;14.472;2023-12-20T07:27:53;3.00;;;2.20;;
83417;SDS011;74442;50.104;14.472;2023-12-20T07:30:24;2.70;;;1.90;;
83417;SDS011;74442;50.104;14.472;2023-12-20T07:32:54;4.00;;;1.90;;
83417;SDS011;74442;50.104;14.472;2023-12-20T07:35:25;3.30;;;2.50;;
83417;SDS011;74442;50.104;14.472;2023-12-20T07:37:55;3.10;;;2.50;;
83417;SDS011;74442;50.104;14.472;2023-12-20T07:40:25;5.20;;;2.20;;
83417;SDS011;74442;50.104;14.472;2023-12-20T07:43:07;2.40;;;1.60;;
83417;SDS011;74442;50.104;14.472;2023-12-20T07:45:49;2.40;;;1.90;;
83417;SDS011;74442;50.104;14.472;2023-12-20T07:48:34;3.00;;;1.70;;
83417;SDS011;74442;50.104;14.472;2023-12-20T07:51:49;4.70;;;1.80;;
83417;SDS011;74442;50.104;14.472;2023-12-20T07:54:19;1.40;;;1.30;;
83417;SDS011;74442;50.104;14.472;2023-12-20T07:57:00;2.70;;;2.10;;
83417;SDS011;74442;50.104;14.472;2023-12-20T07:59:31;3.00;;;2.10;;
83417;SDS011;74442;50.104;14.472;2023-12-20T08:02:00;1.80;;;1.50;;
83417;SDS011;74442;50.104;14.472;2023-12-20T08:04:31;3.10;;;1.80;;
83417;SDS011;74442;50.104;14.472;2023-12-20T08:07:00;2.80;;;2.00;;
83417;SDS011;74442;50.104;14.472;2023-12-20T08:09:31;2.80;;;1.90;;
83417;SDS011;74442;50.104;14.472;2023-12-20T08:12:04;1.80;;;1.40;;
83417;SDS011;74442;50.104;14.472;2023-12-20T08:14:36;1.70;;;1.50;;
83417;SDS011;74442;50.104;14.472;2023-12-20T08:17:06;3.40;;;1.70;;
83417;SDS011;74442;50.104;14.472;2023-12-20T08:19:37;2.60;;;1.40;;
83417;SDS011;74442;50.104;14.472;2023-12-20T08:22:07;2.00;;;1.40;;
83417;SDS011;74442;50.104;14.472;2023-12-20T08:24:37;1.50;;;1.40;;
83417;SDS011;74442;50.104;14.472;2023-12-20T08:27:06;2.00;;;1.50;;
83417;SDS011;74442;50.104;14.472;2023-12-20T08:29:36;3.20;;;1.80;;
83417;SDS011;74442;50.104;14.472;2023-12-20T08:32:07;2.40;;;1.30;;
83417;SDS011;74442;50.104;14.472;2023-12-20T08:34:36;1.30;;;1.20;;
83417;SDS011;74442;50.104;14.472;2023-12-20T08:37:06;1.50;;;1.30;;
83417;SDS011;74442;50.104;14.472;2023-12-20T08:39:36;2.70;;;1.30;;
83417;SDS011;74442;50.104;14.472;2023-12-20T08:42:05;1.50;;;1.20;;
83417;SDS011;74442;50.104;14.472;2023-12-20T08:44:36;2.30;;;1.80;;
83417;SDS011;74442;50.104;14.472;2023-12-20T08:47:05;2.00;;;1.50;;
83417;SDS011;74442;50.104;14.472;2023-12-20T08:49:35;2.50;;;1.60;;
83417;SDS011;74442;50.104;14.472;2023-12-20T08:52:06;1.90;;;1.10;;
83417;SDS011;74442;50.104;14.472;2023-12-20T08:54:35;2.70;;;1.70;;
83417;SDS011;74442;50.104;14.472;2023-12-20T08:57:05;1.90;;;1.50;;
83417;SDS011;74442;50.104;14.472;2023-12-20T08:59:34;2.60;;;1.60;;
83417;SDS011;74442;50.104;14.472;2023-12-20T09:02:05;1.80;;;1.40;;
83417;SDS011;74442;50.104;14.472;2023-12-20T09:04:35;2.00;;;1.60;;
83417;SDS011;74442;50.104;14.472;2023-12-20T09:07:06;2.10;;;1.30;;
83417;SDS011;74442;50.104;14.472;2023-12-20T09:09:48;2.00;;;1.80;;
83417;SDS011;74442;50.104;14.472;2023-12-20T09:12:18;2.10;;;1.20;;
83417;SDS011;74442;50.104;14.472;2023-12-20T09:14:49;2.00;;;1.60;;
83417;SDS011;74442;50.104;14.472;2023-12-20T09:17:21;2.00;;;1.50;;
83417;SDS011;74442;50.104;14.472;2023-12-20T09:19:54;2.70;;;1.70;;
83417;SDS011;74442;50.104;14.472;2023-12-20T09:22:24;1.50;;;1.30;;
83417;SDS011;74442;50.104;14.472;2023-12-20T09:24:53;2.70;;;1.70;;
83417;SDS011;74442;50.104;14.472;2023-12-20T09:27:23;2.40;;;1.80;;
83417;SDS011;74442;50.104;14.472;2023-12-20T09:29:56;2.20;;;1.70;;
83417;SDS011;74442;50.104;14.472;2023-12-20T09:32:25;2.40;;;1.70;;
83417;SDS011;74442;50.104;14.472;2023-12-20T09:34:56;2.20;;;1.50;;
83417;SDS011;74442;50.104;14.472;2023-12-20T09:37:35;3.00;;;1.90;;
83417;SDS011;74442;50.104;14.472;2023-12-20T09:40:05;1.80;;;1.40;;
83417;SDS011;74442;50.104;14.472;2023-12-20T09:42:42;2.20;;;1.70;;
83417;SDS011;74442;50.104;14.472;2023-12-20T09:45:21;1.50;;;1.40;;
83417;SDS011;74442;50.104;14.472;2023-12-20T09:47:55;2.70;;;1.80;;
83417;SDS011;74442;50.104;14.472;2023-12-20T09:50:28;1.80;;;1.70;;
83417;SDS011;74442;50.104;14.472;2023-12-20T09:53:03;2.60;;;1.40;;
83417;SDS011;74442;50.104;14.472;2023-12-20T09:55:36;1.70;;;1.30;;
83417;SDS011;74442;50.104;14.472;2023-12-20T09:58:08;2.40;;;1.70;;
83417;SDS011;74442;50.104;14.472;2023-12-20T10:00:38;1.80;;;1.50;;
83417;SDS011;74442;50.104;14.472;2023-12-20T10:03:08;2.20;;;1.40;;
83417;SDS011;74442;50.104;14.472;2023-12-20T10:05:39;2.30;;;1.60;;
83417;SDS011;74442;50.104;14.472;2023-12-20T10:08:11;1.90;;;1.50;;
83417;SDS011;74442;50.104;14.472;2023-12-20T10:10:49;2.50;;;1.70;;
83417;SDS011;74442;50.104;14.472;2023-12-20T10:13:19;2.10;;;1.20;;
83417;SDS011;74442;50.104;14.472;2023-12-20T10:15:49;1.50;;;1.20;;
83417;SDS011;74442;50.104;14.472;2023-12-20T10:18:19;2.00;;;1.60;;
83417;SDS011;74442;50.104;14.472;2023-12-20T10:20:50;2.10;;;1.90;;
83417;SDS011;74442;50.104;14.472;2023-12-20T10:23:22;1.70;;;1.40;;
83417;SDS011;74442;50.104;14.472;2023-12-20T10:26:02;2.90;;;1.50;;
83417;SDS011;74442;50.104;14.472;2023-12-20T10:28:34;1.60;;;1.30;;
83417;SDS011;74442;50.104;14.472;2023-12-20T10:31:06;1.90;;;1.40;;
83417;SDS011;74442;50.104;14.472;2023-12-20T10:33:39;2.20;;;1.60;;
83417;SDS011;74442;50.104;14.472;2023-12-20T10:36:18;1.90;;;1.60;;
83417;SDS011;74442;50.104;14.472;2023-12-20T10:38:55;2.60;;;1.40;;
83417;SDS011;74442;50.104;14.472;2023-12-20T10:41:32;2.30;;;1.30;;
83417;SDS011;74442;50.104;14.472;2023-12-20T10:44:22;2.10;;;1.70;;
83417;SDS011;74442;50.104;14.472;2023-12-20T10:46:54;2.00;;;1.20;;
83417;SDS011;74442;50.104;14.472;2023-12-20T10:49:28;2.10;;;1.50;;
83417;SDS011;74442;50.104;14.472;2023-12-20T10:52:19;2.30;;;1.20;;
83417;SDS011;74442;50.104;14.472;2023-12-20T10:57:53;2.70;;;1.70;;
83417;SDS011;74442;50.104;14.472;2023-12-20T11:00:39;2.40;;;1.40;;
83417;SDS011;74442;50.104;14.472;2023-12-20T11:03:20;2.60;;;1.90;;
83417;SDS011;74442;50.104;14.472;2023-12-20T11:05:58;2.80;;;2.10;;
83417;SDS011;74442;50.104;14.472;2023-12-20T11:08:38;2.00;;;1.40;;
83417;SDS011;74442;50.104;14.472;2023-12-20T11:11:29;3.70;;;2.00;;
83417;SDS011;74442;50.104;14.472;2023-12-20T11:14:06;1.60;;;1.50;;
83417;SDS011;74442;50.104;14.472;2023-12-20T11:16:47;1.90;;;1.50;;
83417;SDS011;74442;50.104;14.472;2023-12-20T11:19:23;2.80;;;2.30;;
83417;SDS011;74442;50.104;14.472;2023-12-20T11:21:58;1.70;;;1.40;;
83417;SDS011;74442;50.104;14.472;2023-12-20T11:24:34;2.00;;;1.80;;
83417;SDS011;74442;50.104;14.472;2023-12-20T11:27:15;2.80;;;1.80;;
83417;SDS011;74442;50.104;14.472;2023-12-20T11:29:52;3.40;;;2.00;;
83417;SDS011;74442;50.104;14.472;2023-12-20T11:32:29;2.20;;;1.90;;
83417;SDS011;74442;50.104;14.472;2023-12-20T11:37:31;3.40;;;2.00;;
83417;SDS011;74442;50.104;14.472;2023-12-20T11:40:07;3.20;;;2.20;;
83417;SDS011;74442;50.104;14.472;2023-12-20T11:42:42;2.70;;;2.00;;
83417;SDS011;74442;50.104;14.472;2023-12-20T11:45:14;3.00;;;2.00;;
83417;SDS011;74442;50.104;14.472;2023-12-20T11:47:47;4.20;;;1.90;;
83417;SDS011;74442;50.104;14.472;2023-12-20T11:50:18;1.90;;;1.60;;
83417;SDS011;74442;50.104;14.472;2023-12-20T11:52:50;3.00;;;2.30;;
83417;SDS011;74442;50.104;14.472;2023-12-20T11:55:23;2.60;;;2.00;;
83417;SDS011;74442;50.104;14.472;2023-12-20T11:57:53;2.90;;;2.40;;
83417;SDS011;74442;50.104;14.472;2023-12-20T12:00:24;2.00;;;1.60;;
83417;SDS011;74442;50.104;14.472;2023-12-20T12:02:57;3.20;;;2.20;;
83417;SDS011;74442;50.104;14.472;2023-12-20T12:05:27;3.50;;;1.90;;
83417;SDS011;74442;50.104;14.472;2023-12-20T12:07:59;2.90;;;2.10;;
83417;SDS011;74442;50.104;14.472;2023-12-20T12:10:30;2.20;;;1.80;;
83417;SDS011;74442;50.104;14.472;2023-12-20T12:13:01;4.30;;;2.60;;
83417;SDS011;74442;50.104;14.472;2023-12-20T12:15:32;4.40;;;2.40;;
83417;SDS011;74442;50.104;14.472;2023-12-20T12:18:02;2.60;;;1.90;;
83417;SDS011;74442;50.104;14.472;2023-12-20T12:20:33;3.60;;;1.90;;
83417;SDS011;74442;50.104;14.472;2023-12-20T12:23:06;5.00;;;2.00;;
83417;SDS011;74442;50.104;14.472;2023-12-20T12:25:37;3.00;;;2.00;;
83417;SDS011;74442;50.104;14.472;2023-12-20T12:28:06;3.20;;;2.30;;
83417;SDS011;74442;50.104;14.472;2023-12-20T12:30:36;3.70;;;2.20;;
83417;SDS011;74442;50.104;14.472;2023-12-20T12:33:07;3.20;;;2.10;;
83417;SDS011;74442;50.104;14.472;2023-12-20T12:35:37;5.60;;;2.50;;
83417;SDS011;74442;50.104;14.472;2023-12-20T12:38:08;4.20;;;2.00;;
83417;SDS011;74442;50.104;14.472;2023-12-20T12:40:39;3.00;;;2.20;;
83417;SDS011;74442;50.104;14.472;2023-12-20T12:43:12;7.40;;;2.20;;
83417;SDS011;74442;50.104;14.472;2023-12-20T12:45:42;2.50;;;1.80;;
83417;SDS011;74442;50.104;14.472;2023-12-20T12:48:12;5.70;;;2.30;;
83417;SDS011;74442;50.104;14.472;2023-12-20T12:50:41;4.80;;;2.10;;
83417;SDS011;74442;50.104;14.472;2023-12-20T12:53:14;4.70;;;2.30;;
83417;SDS011;74442;50.104;14.472;2023-12-20T12:55:47;4.00;;;2.20;;
83417;SDS011;74442;50.104;14.472;2023-12-20T12:58:17;2.90;;;2.10;;
83417;SDS011;74442;50.104;14.472;2023-12-20T13:00:48;2.90;;;2.00;;
83417;SDS011;74442;50.104;14.472;2023-12-20T13:03:18;5.20;;;2.50;;
83417;SDS011;74442;50.104;14.472;2023-12-20T13:05:48;4.70;;;2.20;;
83417;SDS011;74442;50.104;14.472;2023-12-20T13:08:18;2.60;;;1.60;;
83417;SDS011;74442;50.104;14.472;2023-12-20T13:10:47;3.20;;;1.50;;
83417;SDS011;74442;50.104;14.472;2023-12-20T13:13:16;4.10;;;1.90;;
83417;SDS011;74442;50.104;14.472;2023-12-20T13:15:45;3.10;;;1.90;;
83417;SDS011;74442;50.104;14.472;2023-12-20T13:18:19;3.60;;;1.90;;
83417;SDS011;74442;50.104;14.472;2023-12-20T13:20:49;4.90;;;2.20;;
83417;SDS011;74442;50.104;14.472;2023-12-20T13:23:18;2.50;;;1.90;;
83417;SDS011;74442;50.104;14.472;2023-12-20T13:25:47;5.80;;;1.90;;
83417;SDS011;74442;50.104;14.472;2023-12-20T13:28:17;7.30;;;2.30;;
83417;SDS011;74442;50.104;14.472;2023-12-20T13:30:46;2.70;;;1.50;;
83417;SDS011;74442;50.104;14.472;2023-12-20T13:33:16;2.60;;;1.80;;
83417;SDS011;74442;50.104;14.472;2023-12-20T13:35:45;3.00;;;1.70;;
83417;SDS011;74442;50.104;14.472;2023-12-20T13:38:14;3.20;;;2.00;;
83417;SDS011;74442;50.104;14.472;2023-12-20T13:40:44;3.80;;;1.70;;
83417;SDS011;74442;50.104;14.472;2023-12-20T13:43:13;3.60;;;2.10;;
83417;SDS011;74442;50.104;14.472;2023-12-20T13:45:47;5.60;;;2.00;;
83417;SDS011;74442;50.104;14.472;2023-12-20T13:48:17;4.20;;;2.00;;
83417;SDS011;74442;50.104;14.472;2023-12-20T13:50:46;3.60;;;2.10;;
83417;SDS011;74442;50.104;14.472;2023-12-20T13:53:16;4.90;;;1.80;;
83417;SDS011;74442;50.104;14.472;2023-12-20T13:55:49;7.20;;;2.20;;
83417;SDS011;74442;50.104;14.472;2023-12-20T13:58:18;5.30;;;2.10;;
83417;SDS011;74442;50.104;14.472;2023-12-20T14:00:48;5.80;;;2.50;;
83417;SDS011;74442;50.104;14.472;2023-12-20T14:03:17;3.00;;;2.00;;
83417;SDS011;74442;50.104;14.472;2023-12-20T14:05:48;8.50;;;2.20;;
83417;SDS011;74442;50.104;14.472;2023-12-20T14:08:17;5.00;;;1.90;;
83417;SDS011;74442;50.104;14.472;2023-12-20T14:10:47;3.30;;;2.00;;
83417;SDS011;74442;50.104;14.472;2023-12-20T14:13:18;2.60;;;1.70;;
83417;SDS011;74442;50.104;14.472;2023-12-20T14:15:49;3.70;;;2.10;;
83417;SDS011;74442;50.104;14.472;2023-12-20T14:18:18;3.30;;;2.00;;
83417;SDS011;74442;50.104;14.472;2023-12-20T14:20:48;5.80;;;2.40;;
83417;SDS011;74442;50.104;14.472;2023-12-20T14:23:18;4.00;;;2.00;;
83417;SDS011;74442;50.104;14.472;2023-12-20T14:25:48;2.80;;;2.00;;
83417;SDS011;74442;50.104;14.472;2023-12-20T14:28:17;7.10;;;2.00;;
83417;SDS011;74442;50.104;14.472;2023-12-20T14:30:46;5.20;;;2.00;;
83417;SDS011;74442;50.104;14.472;2023-12-20T14:33:16;6.10;;;2.20;;
83417;SDS011;74442;50.104;14.472;2023-12-20T14:35:47;5.90;;;2.50;;
83417;SDS011;74442;50.104;14.472;2023-12-20T14:38:17;3.30;;;2.10;;
83417;SDS011;74442;50.104;14.472;2023-12-20T14:40:47;3.50;;;2.00;;
83417;SDS011;74442;50.104;14.472;2023-12-20T14:43:22;4.00;;;1.90;;
83417;SDS011;74442;50.104;14.472;2023-12-20T14:45:54;3.30;;;2.00;;
83417;SDS011;74442;50.104;14.472;2023-12-20T14:48:25;2.50;;;2.00;;
83417;SDS011;74442;50.104;14.472;2023-12-20T14:51:00;2.50;;;2.00;;
83417;SDS011;74442;50.104;14.472;2023-12-20T14:53:30;4.10;;;2.10;;
83417;SDS011;74442;50.104;14.472;2023-12-20T14:56:06;5.20;;;2.20;;
83417;SDS011;74442;50.104;14.472;2023-12-20T14:58:42;4.40;;;2.40;;
83417;SDS011;74442;50.104;14.472;2023-12-20T15:01:25;3.80;;;2.30;;
83417;SDS011;74442;50.104;14.472;2023-12-20T15:04:06;11.90;;;2.10;;
83417;SDS011;74442;50.104;14.472;2023-12-20T15:06:35;3.40;;;2.00;;
83417;SDS011;74442;50.104;14.472;2023-12-20T15:09:04;5.80;;;2.60;;
83417;SDS011;74442;50.104;14.472;2023-12-20T15:14:05;4.60;;;2.30;;
83417;SDS011;74442;50.104;14.472;2023-12-20T15:16:35;4.40;;;2.10;;
83417;SDS011;74442;50.104;14.472;2023-12-20T15:19:05;4.00;;;2.10;;
83417;SDS011;74442;50.104;14.472;2023-12-20T15:21:34;6.80;;;2.00;;